createdAt,value
2019-02-04T00:00:18.624Z,95030.48
2019-02-04T00:02:47.495Z,95058.03
2019-02-04T00:05:16.170Z,95036.22
2019-02-04T00:07:52.817Z,95068.25
2019-02-04T00:10:21.576Z,95040.80
2019-02-04T00:12:50.146Z,95070.53
2019-02-04T00:15:19.156Z,95047.62
2019-02-04T00:17:47.926Z,95070.47
2019-02-04T00:20:16.562Z,95058.89
2019-02-04T00:22:45.241Z,95063.61
2019-02-04T00:25:13.883Z,95047.33
2019-02-04T00:27:42.507Z,95057.74
2019-02-04T00:30:20.035Z,95063.31
2019-02-04T00:32:49.062Z,95074.63
2019-02-04T00:35:17.692Z,95062.66
2019-02-04T00:37:46.369Z,95078.30
2019-02-04T00:40:24.091Z,95079.08
2019-02-04T00:42:52.864Z,95071.48
2019-02-04T00:45:21.494Z,95081.86
2019-02-04T00:47:50.131Z,95086.23
2019-02-04T00:50:20.711Z,95081.91
2019-02-04T00:52:49.518Z,95094.77
2019-02-04T00:55:18.507Z,95079.25
2019-02-04T00:57:47.196Z,95095.88
2019-02-04T01:00:30.117Z,95111.91
2019-02-04T01:02:58.991Z,95106.33
2019-02-04T01:05:27.853Z,95111.72
2019-02-04T01:07:58.033Z,95110.16
2019-02-04T01:10:28.420Z,95112.70
2019-02-04T01:12:57.535Z,95097.33
2019-02-04T01:15:26.642Z,95101.42
2019-02-04T01:17:55.530Z,95105.51
2019-02-04T01:20:29.189Z,95103.76
2019-02-04T01:22:58.536Z,95103.06
2019-02-04T01:25:27.396Z,95110.12
2019-02-04T01:27:56.133Z,95118.16
2019-02-04T01:30:25.757Z,95111.75
2019-02-04T01:32:54.939Z,95124.38
2019-02-04T01:35:23.691Z,95103.44
2019-02-04T01:37:52.531Z,95121.55
2019-02-04T01:40:24.102Z,95101.09
2019-02-04T01:42:53.225Z,95115.13
2019-02-04T01:45:22.280Z,95122.11
2019-02-04T01:47:50.921Z,95115.86
2019-02-04T01:50:21.640Z,95123.97
2019-02-04T01:52:50.271Z,95121.30
2019-02-04T01:55:18.953Z,95135.68
2019-02-04T01:57:50.193Z,95113.44
2019-02-04T02:00:30.049Z,95134.12
2019-02-04T02:02:58.952Z,95126.16
2019-02-04T02:05:27.618Z,95134.38
2019-02-04T02:07:56.956Z,95131.86
2019-02-04T02:10:27.291Z,95141.48
2019-02-04T02:12:56.426Z,95143.89
2019-02-04T02:15:25.117Z,95150.03
2019-02-04T02:17:53.858Z,95156.81
2019-02-04T02:20:25.178Z,95163.82
2019-02-04T02:22:53.969Z,95164.06
2019-02-04T02:25:22.589Z,95163.74
2019-02-04T02:27:51.326Z,95157.05
2019-02-04T02:30:23.466Z,95155.46
2019-02-04T02:32:52.091Z,95156.85
2019-02-04T02:35:20.663Z,95164.14
2019-02-04T02:37:49.271Z,95173.39
2019-02-04T02:40:20.806Z,95169.66
2019-02-04T02:42:49.444Z,95163.44
2019-02-04T02:45:18.390Z,95166.94
2019-02-04T02:47:46.958Z,95171.59
2019-02-04T02:50:16.189Z,95178.99
2019-02-04T02:52:44.917Z,95172.02
2019-02-04T02:55:16.797Z,95167.59
2019-02-04T02:57:45.427Z,95166.72
2019-02-04T03:00:17.416Z,95171.52
2019-02-04T03:02:45.988Z,95174.56
2019-02-04T03:05:16.406Z,95180.67
2019-02-04T03:07:52.455Z,95184.24
2019-02-04T03:10:26.842Z,95187.50
2019-02-04T03:12:55.656Z,95176.25
2019-02-04T03:15:24.602Z,95186.72
2019-02-04T03:17:53.226Z,95184.09
2019-02-04T03:20:21.959Z,95185.95
2019-02-04T03:22:50.631Z,95192.63
2019-02-04T03:25:19.262Z,95179.98
2019-02-04T03:27:47.889Z,95188.68
2019-02-04T03:30:28.348Z,95191.23
2019-02-04T03:32:56.975Z,95177.33
2019-02-04T03:35:25.729Z,95195.38
2019-02-04T03:37:54.524Z,95196.28
2019-02-04T03:40:25.716Z,95191.28
2019-02-04T03:42:54.357Z,95188.91
2019-02-04T03:45:23.032Z,95187.16
2019-02-04T03:48:03.691Z,95188.59
2019-02-04T03:50:22.350Z,95180.83
2019-02-04T03:52:51.456Z,95184.84
2019-02-04T03:55:20.792Z,95181.98
2019-02-04T03:57:49.488Z,95186.53
2019-02-04T04:00:29.701Z,95191.39
2019-02-04T04:02:58.375Z,95190.55
2019-02-04T04:05:27.396Z,95193.45
2019-02-04T04:07:56.033Z,95187.71
2019-02-04T04:10:24.793Z,95182.51
2019-02-04T04:12:53.513Z,95176.42
2019-02-04T04:15:23.137Z,95178.28
2019-02-04T04:17:51.958Z,95201.67
2019-02-04T04:20:21.482Z,95198.98
2019-02-04T04:22:50.109Z,95194.34
2019-02-04T04:25:19.185Z,95205.14
2019-02-04T04:27:48.404Z,95185.55
2019-02-04T04:30:26.354Z,95201.81
2019-02-04T04:32:55.953Z,95177.27
2019-02-04T04:35:24.672Z,95191.33
2019-02-04T04:37:53.852Z,95196.88
2019-02-04T04:40:23.076Z,95198.63
2019-02-04T04:42:51.706Z,95201.16
2019-02-04T04:45:22.181Z,95207.73
2019-02-04T04:47:51.293Z,95212.48
2019-02-04T04:50:20.023Z,95213.61
2019-02-04T04:52:49.001Z,95202.41
2019-02-04T04:55:20.193Z,95204.86
2019-02-04T04:57:48.831Z,95215.42
2019-02-04T05:00:20.257Z,95213.15
2019-02-04T05:02:48.896Z,95220.91
2019-02-04T05:05:17.629Z,95230.26
2019-02-04T05:07:46.307Z,95226.39
2019-02-04T05:10:20.835Z,95242.36
2019-02-04T05:12:49.385Z,95238.55
2019-02-04T05:15:20.740Z,95238.57
2019-02-04T05:17:52.321Z,95245.29
2019-02-04T05:20:20.360Z,95237.37
2019-02-04T05:22:49.115Z,95244.80
2019-02-04T05:25:18.055Z,95245.61
2019-02-04T05:27:46.796Z,95237.42
2019-02-04T05:30:26.203Z,95246.92
2019-02-04T05:32:54.845Z,95246.77
2019-02-04T05:35:23.692Z,95255.78
2019-02-04T05:37:52.523Z,95262.05
2019-02-04T05:40:21.157Z,95268.85
2019-02-04T05:42:50.267Z,95267.02
2019-02-04T05:45:22.134Z,95271.11
2019-02-04T05:47:50.762Z,95267.02
2019-02-04T05:50:20.634Z,95270.14
2019-02-04T05:52:49.677Z,95268.30
2019-02-04T05:55:20.360Z,95274.23
2019-02-04T05:57:49.047Z,95272.09
2019-02-04T06:00:24.621Z,95273.16
2019-02-04T06:02:53.241Z,95287.02
2019-02-04T06:05:22.125Z,95287.39
2019-02-04T06:07:50.762Z,95273.22
2019-02-04T06:10:19.778Z,95277.06
2019-02-04T06:12:48.475Z,95276.88
2019-02-04T06:15:17.892Z,95289.38
2019-02-04T06:17:46.533Z,95273.95
2019-02-04T06:20:21.224Z,95278.70
2019-02-04T06:22:49.926Z,95295.17
2019-02-04T06:25:18.654Z,95287.01
2019-02-04T06:27:47.731Z,95291.34
2019-02-04T06:30:17.654Z,95294.00
2019-02-04T06:32:46.302Z,95309.24
2019-02-04T06:35:16.789Z,95305.58
2019-02-04T06:37:46.944Z,95300.93
2019-02-04T06:40:17.320Z,95302.96
2019-02-04T06:42:46.201Z,95303.10
2019-02-04T06:45:18.689Z,95308.52
2019-02-04T06:47:47.305Z,95312.23
2019-02-04T06:50:18.228Z,95312.36
2019-02-04T06:52:47.097Z,95315.85
2019-02-04T06:55:18.329Z,95323.03
2019-02-04T06:57:47.002Z,95328.50
2019-02-04T07:00:17.643Z,95331.59
2019-02-04T07:02:46.666Z,95330.77
2019-02-04T07:05:17.108Z,95338.28
2019-02-04T07:07:45.674Z,95336.24
2019-02-04T07:10:19.735Z,95333.55
2019-02-04T07:12:48.375Z,95344.87
2019-02-04T07:15:17.005Z,95347.77
2019-02-04T07:17:45.754Z,95349.35
2019-02-04T07:20:17.684Z,95356.08
2019-02-04T07:22:46.307Z,95358.70
2019-02-04T07:25:16.434Z,95369.91
2019-02-04T07:27:45.066Z,95373.55
2019-02-04T07:30:25.396Z,95367.52
2019-02-04T07:32:54.286Z,95376.87
2019-02-04T07:35:23.032Z,95378.95
2019-02-04T07:37:51.852Z,95377.05
2019-02-04T07:40:23.450Z,95385.34
2019-02-04T07:42:52.977Z,95382.36
2019-02-04T07:45:21.963Z,95393.00
2019-02-04T07:47:50.883Z,95396.80
2019-02-04T07:50:19.521Z,95399.77
2019-02-04T07:52:48.379Z,95405.67
2019-02-04T07:55:17.023Z,95401.13
2019-02-04T07:57:45.665Z,95407.98
2019-02-04T08:00:20.376Z,95410.63
2019-02-04T08:02:49.283Z,95405.23
2019-02-04T08:05:17.911Z,95406.66
2019-02-04T08:07:46.793Z,95405.91
2019-02-04T08:10:16.660Z,95411.25
2019-02-04T08:12:45.260Z,95400.25
2019-02-04T08:15:19.910Z,95409.20
2019-02-04T08:17:49.456Z,95413.40
2019-02-04T08:20:18.087Z,95414.34
2019-02-04T08:22:46.757Z,95412.16
2019-02-04T08:25:18.713Z,95419.26
2019-02-04T08:27:47.381Z,95419.13
2019-02-04T08:30:27.909Z,95422.42
2019-02-04T08:32:56.852Z,95422.49
2019-02-04T08:35:25.477Z,95418.84
2019-02-04T08:37:54.229Z,95418.61
2019-02-04T08:40:22.870Z,95411.48
2019-02-04T08:42:51.892Z,95419.83
2019-02-04T08:45:20.556Z,95414.39
2019-02-04T08:47:49.123Z,95411.09
2019-02-04T08:50:25.492Z,95408.56
2019-02-04T08:52:54.120Z,95416.11
2019-02-04T08:55:22.741Z,95423.49
2019-02-04T08:57:51.785Z,95422.00
2019-02-04T09:00:22.526Z,95425.40
2019-02-04T09:02:51.088Z,95429.63
2019-02-04T09:05:21.156Z,95432.15
2019-02-04T09:07:49.801Z,95426.97
2019-02-04T09:10:34.272Z,95431.09
2019-02-04T09:13:02.842Z,95435.87
2019-02-04T09:15:31.502Z,95430.19
2019-02-04T09:18:00.273Z,95427.59
2019-02-04T09:20:28.906Z,95422.98
2019-02-04T09:22:57.735Z,95409.16
2019-02-04T09:25:27.713Z,95413.53
2019-02-04T09:27:57.937Z,95414.30
2019-02-04T09:30:29.650Z,95407.20
2019-02-04T09:32:59.843Z,95409.66
2019-02-04T09:35:28.579Z,95411.85
2019-02-04T09:37:57.229Z,95409.57
2019-02-04T09:40:40.449Z,95408.99
2019-02-04T09:43:09.181Z,95408.02
2019-02-04T09:45:37.831Z,95409.53
2019-02-04T09:48:09.503Z,95408.62
2019-02-04T09:50:40.886Z,95411.53
2019-02-04T09:53:09.798Z,95415.32
2019-02-04T09:55:39.777Z,95415.41
2019-02-04T09:58:08.650Z,95412.10
2019-02-04T10:00:37.773Z,95410.72
2019-02-04T10:03:07.304Z,95398.77
2019-02-04T10:05:37.032Z,95391.19
2019-02-04T10:08:06.987Z,95390.97
2019-02-04T10:10:35.926Z,95387.30
2019-02-04T10:13:05.471Z,95388.52
2019-02-04T10:15:36.814Z,95386.17
2019-02-04T10:18:06.692Z,95382.52
2019-02-04T10:20:35.313Z,95372.84
2019-02-04T10:23:04.695Z,95372.61
2019-02-04T10:25:35.853Z,95376.86
2019-02-04T10:28:04.981Z,95363.53
2019-02-04T10:30:33.701Z,95362.56
2019-02-04T10:33:02.345Z,95364.52
2019-02-04T10:35:31.332Z,95366.03
2019-02-04T10:38:00.210Z,95369.93
2019-02-04T10:40:30.260Z,95358.52
2019-02-04T10:42:58.994Z,95363.33
2019-02-04T10:45:27.666Z,95360.04
2019-02-04T10:47:56.564Z,95351.34
2019-02-04T10:50:45.579Z,95356.48
2019-02-04T10:53:08.528Z,95354.13
2019-02-04T10:55:37.227Z,95351.46
2019-02-04T10:58:08.385Z,95355.59
2019-02-04T11:00:38.592Z,95351.75
2019-02-04T11:03:07.476Z,95347.89
2019-02-04T11:05:41.635Z,95351.30
2019-02-04T11:08:12.450Z,95344.90
2019-02-04T11:10:41.651Z,95348.20
2019-02-04T11:13:12.588Z,95348.89
2019-02-04T11:15:41.652Z,95347.62
2019-02-04T11:18:10.773Z,95344.52
2019-02-04T11:20:39.702Z,95344.29
2019-02-04T11:23:09.159Z,95345.86
2019-02-04T11:25:38.309Z,95339.27
2019-02-04T11:28:08.247Z,95341.06
2019-02-04T11:30:39.848Z,95345.16
2019-02-04T11:33:09.266Z,95349.48
2019-02-04T11:35:38.060Z,95351.55
2019-02-04T11:38:06.994Z,95351.09
2019-02-04T11:40:37.942Z,95345.21
2019-02-04T11:43:07.437Z,95344.59
2019-02-04T11:45:36.250Z,95344.33
2019-02-04T11:48:09.841Z,95341.83
2019-02-04T11:50:39.014Z,95352.41
2019-02-04T11:53:07.966Z,95345.31
2019-02-04T11:55:36.735Z,95347.11
2019-02-04T11:58:07.919Z,95344.75
2019-02-04T12:00:37.041Z,95346.16
2019-02-04T12:03:08.085Z,95337.30
2019-02-04T12:05:36.686Z,95339.64
2019-02-04T12:08:05.621Z,95333.62
2019-02-04T12:10:40.031Z,95332.95
2019-02-04T12:13:08.696Z,95328.39
2019-02-04T12:15:37.549Z,95329.97
2019-02-04T12:18:06.343Z,95327.55
2019-02-04T12:20:35.016Z,95320.31
2019-02-04T12:23:03.651Z,95321.27
2019-02-04T12:25:32.569Z,95318.58
2019-02-04T12:28:01.216Z,95321.55
2019-02-04T12:30:35.545Z,95322.09
2019-02-04T12:33:06.074Z,95315.70
2019-02-04T12:35:34.752Z,95311.80
2019-02-04T12:38:03.492Z,95309.59
2019-02-04T12:40:32.696Z,95308.63
2019-02-04T12:43:01.290Z,95304.20
2019-02-04T12:45:32.524Z,95297.27
2019-02-04T12:48:01.314Z,95310.17
2019-02-04T12:50:30.186Z,95313.81
2019-02-04T12:52:58.785Z,95311.19
2019-02-04T12:55:30.032Z,95315.02
2019-02-04T12:57:58.851Z,95315.78
2019-02-04T13:00:29.941Z,95304.48
2019-02-04T13:02:59.002Z,95306.98
2019-02-04T13:05:42.148Z,95311.52
2019-02-04T13:08:12.038Z,95304.94
2019-02-04T13:10:40.672Z,95308.58
2019-02-04T13:13:11.607Z,95306.84
2019-02-04T13:15:40.311Z,95314.52
2019-02-04T13:18:09.948Z,95320.07
2019-02-04T13:20:39.196Z,95318.84
2019-02-04T13:23:08.160Z,95320.49
2019-02-04T13:25:36.837Z,95318.19
2019-02-04T13:28:07.757Z,95321.39
2019-02-04T13:30:36.437Z,95318.02
2019-02-04T13:33:05.257Z,95317.97
2019-02-04T13:35:34.184Z,95309.45
2019-02-04T13:38:02.852Z,95312.80
2019-02-04T13:40:31.892Z,95298.27
2019-02-04T13:43:00.621Z,95312.72
2019-02-04T13:45:30.177Z,95305.73
2019-02-04T13:47:58.852Z,95316.73
2019-02-04T13:50:27.750Z,95312.98
2019-02-04T13:52:56.705Z,95311.60
2019-02-04T13:55:36.960Z,95334.41
2019-02-04T13:58:06.417Z,95321.69
2019-02-04T14:00:36.644Z,95334.92
2019-02-04T14:03:07.037Z,95336.92
2019-02-04T14:05:35.944Z,95333.47
2019-02-04T14:08:05.070Z,95327.31
2019-02-04T14:10:36.138Z,95325.36
2019-02-04T14:13:05.738Z,95329.34
2019-02-04T14:15:35.995Z,95321.81
2019-02-04T14:18:05.767Z,95316.69
2019-02-04T14:20:34.705Z,95315.97
2019-02-04T14:23:04.404Z,95313.28
2019-02-04T14:25:33.301Z,95317.28
2019-02-04T14:28:03.722Z,95322.83
2019-02-04T14:30:35.726Z,95327.63
2019-02-04T14:33:05.020Z,95325.67
2019-02-04T14:35:33.705Z,95327.00
2019-02-04T14:38:02.429Z,95327.94
2019-02-04T14:40:31.151Z,95323.49
2019-02-04T14:43:08.749Z,95323.13
2019-02-04T14:45:58.430Z,95326.34
2019-02-04T14:48:49.447Z,95325.36
2019-02-04T14:51:43.594Z,95325.21
2019-02-04T14:54:15.495Z,95324.13
2019-02-04T14:56:56.128Z,95321.48
2019-02-04T14:59:26.598Z,95327.44
2019-02-04T15:02:10.312Z,95319.80
2019-02-04T15:04:44.952Z,95322.75
2019-02-04T15:07:39.229Z,95318.05
2019-02-04T15:10:32.068Z,95320.22
2019-02-04T15:13:21.518Z,95310.33
2019-02-04T15:16:10.012Z,95320.66
2019-02-04T15:18:56.780Z,95321.09
2019-02-04T15:21:31.175Z,95324.19
2019-02-04T15:24:08.753Z,95315.93
2019-02-04T15:26:44.892Z,95324.37
2019-02-04T15:29:16.448Z,95319.95
2019-02-04T15:31:53.776Z,95319.52
2019-02-04T15:34:37.128Z,95324.27
2019-02-04T15:37:20.801Z,95328.61
2019-02-04T15:40:01.023Z,95340.22
2019-02-04T15:42:38.865Z,95347.39
2019-02-04T15:45:37.879Z,95352.58
2019-02-04T15:48:06.558Z,95352.45
2019-02-04T15:51:00.968Z,95350.31
2019-02-04T15:53:29.809Z,95351.68
2019-02-04T15:55:59.849Z,95349.86
2019-02-04T15:58:28.862Z,95349.41
2019-02-04T16:00:57.699Z,95358.26
2019-02-04T16:03:26.316Z,95364.36
2019-02-04T16:05:54.878Z,95361.93
2019-02-04T16:08:23.483Z,95363.15
2019-02-04T16:10:52.120Z,95361.48
2019-02-04T16:13:20.744Z,95366.05
2019-02-04T16:15:49.626Z,95362.39
2019-02-04T16:18:18.256Z,95364.84
2019-02-04T16:20:46.834Z,95369.87
2019-02-04T16:23:15.502Z,95371.37
2019-02-04T16:25:44.258Z,95372.42
2019-02-04T16:28:12.825Z,95370.88
2019-02-04T16:30:41.544Z,95373.89
2019-02-04T16:33:10.110Z,95380.19
2019-02-04T16:35:38.741Z,95387.16
2019-02-04T16:38:07.396Z,95392.15
2019-02-04T16:40:35.964Z,95404.17
2019-02-04T16:43:04.791Z,95400.62
2019-02-04T16:45:34.034Z,95400.43
2019-02-04T16:48:02.666Z,95399.36
2019-02-04T16:50:31.289Z,95404.41
2019-02-04T16:53:10.179Z,95416.59
2019-02-04T16:55:30.262Z,95421.61
2019-02-04T16:57:58.820Z,95420.45
2019-02-04T17:00:30.281Z,95421.29
2019-02-04T17:02:58.923Z,95424.70
2019-02-04T17:05:28.113Z,95423.84
2019-02-04T17:07:56.881Z,95423.84
2019-02-04T17:10:26.713Z,95426.16
2019-02-04T17:12:55.810Z,95432.79
2019-02-04T17:15:25.770Z,95433.09
2019-02-04T17:17:54.597Z,95437.58
2019-02-04T17:20:26.066Z,95436.04
2019-02-04T17:22:54.791Z,95444.67
2019-02-04T17:25:23.717Z,95443.21
2019-02-04T17:27:52.353Z,95450.52
2019-02-04T17:30:25.964Z,95446.19
2019-02-04T17:32:54.608Z,95449.00
2019-02-04T17:35:23.837Z,95457.91
2019-02-04T17:37:52.741Z,95459.22
2019-02-04T17:40:23.359Z,95464.33
2019-02-04T17:42:53.389Z,95468.48
2019-02-04T17:45:22.048Z,95460.48
2019-02-04T17:47:51.393Z,95471.23
2019-02-04T17:50:21.634Z,95459.03
2019-02-04T17:52:50.544Z,95464.16
2019-02-04T17:55:24.192Z,95466.69
2019-02-04T17:57:53.580Z,95470.03
2019-02-04T18:00:43.887Z,95470.08
2019-02-04T18:03:12.521Z,95473.30
2019-02-04T18:05:41.128Z,95473.25
2019-02-04T18:08:09.997Z,95482.42
2019-02-04T18:10:38.620Z,95484.14
2019-02-04T18:13:07.174Z,95474.50
2019-02-04T18:15:35.885Z,95480.74
2019-02-04T18:18:05.116Z,95487.80
2019-02-04T18:20:33.754Z,95487.16
2019-02-04T18:23:02.432Z,95486.03
2019-02-04T18:25:31.383Z,95486.63
2019-02-04T18:27:59.967Z,95494.66
2019-02-04T18:30:28.799Z,95493.89
2019-02-04T18:32:57.419Z,95496.13
2019-02-04T18:35:26.499Z,95495.73
2019-02-04T18:37:55.392Z,95498.17
2019-02-04T18:40:24.555Z,95495.09
2019-02-04T18:42:53.591Z,95492.56
2019-02-04T18:45:24.897Z,95493.48
2019-02-04T18:47:53.540Z,95494.89
2019-02-04T18:50:23.154Z,95494.48
2019-02-04T18:52:52.092Z,95499.77
2019-02-04T18:55:23.638Z,95504.66
2019-02-04T18:57:52.263Z,95490.94
2019-02-04T19:00:23.724Z,95503.84
2019-02-04T19:02:52.359Z,95502.97
2019-02-04T19:05:21.378Z,95502.02
2019-02-04T19:07:50.291Z,95500.77
2019-02-04T19:10:20.818Z,95501.80
2019-02-04T19:12:49.456Z,95503.25
2019-02-04T19:15:23.199Z,95506.67
2019-02-04T19:17:52.643Z,95504.62
2019-02-04T19:20:22.977Z,95506.84
2019-02-04T19:22:51.657Z,95510.27
2019-02-04T19:25:21.987Z,95498.66
2019-02-04T19:27:51.612Z,95494.80
2019-02-04T19:30:28.495Z,95489.70
2019-02-04T19:32:57.397Z,95491.66
2019-02-04T19:35:26.045Z,95497.22
2019-02-04T19:37:54.732Z,95505.50
2019-02-04T19:40:23.356Z,95502.26
2019-02-04T19:42:51.984Z,95498.84
2019-02-04T19:45:26.024Z,95500.88
2019-02-04T19:47:54.943Z,95505.13
2019-02-04T19:50:32.315Z,95503.33
2019-02-04T19:53:01.012Z,95509.13
2019-02-04T19:55:29.743Z,95511.50
2019-02-04T19:57:58.407Z,95507.48
2019-02-04T20:00:27.641Z,95503.73
2019-02-04T20:02:56.380Z,95511.58
2019-02-04T20:05:29.695Z,95519.00
2019-02-04T20:07:58.426Z,95522.89
2019-02-04T20:10:30.032Z,95519.66
2019-02-04T20:12:58.875Z,95513.73
2019-02-04T20:15:29.288Z,95515.94
2019-02-04T20:17:58.416Z,95521.23
2019-02-04T20:20:27.589Z,95522.42
2019-02-04T20:22:56.931Z,95524.20
2019-02-04T20:25:31.284Z,95523.59
2019-02-04T20:27:59.962Z,95521.45
2019-02-04T20:30:45.794Z,95528.20
2019-02-04T20:33:10.642Z,95521.59
2019-02-04T20:35:39.416Z,95515.97
2019-02-04T20:38:09.051Z,95505.64
2019-02-04T20:40:37.982Z,95520.99
2019-02-04T20:43:08.252Z,95525.56
2019-02-04T20:45:39.795Z,95525.90
2019-02-04T20:48:10.883Z,95526.23
2019-02-04T20:50:48.051Z,95522.42
2019-02-04T20:53:16.727Z,95526.49
2019-02-04T20:55:45.409Z,95519.19
2019-02-04T20:58:13.967Z,95518.84
2019-02-04T21:00:42.830Z,95512.11
2019-02-04T21:03:11.563Z,95511.77
2019-02-04T21:05:40.202Z,95516.87
2019-02-04T21:08:09.046Z,95517.13
2019-02-04T21:10:37.955Z,95523.23
2019-02-04T21:13:06.642Z,95523.31
2019-02-04T21:15:35.445Z,95516.48
2019-02-04T21:18:04.368Z,95512.25
2019-02-04T21:20:33.196Z,95511.89
2019-02-04T21:23:01.882Z,95516.75
2019-02-04T21:25:30.829Z,95510.01
2019-02-04T21:27:59.452Z,95516.23
2019-02-04T21:31:14.037Z,95514.15
2019-02-04T21:37:23.422Z,95518.05
2019-02-04T21:39:52.075Z,95514.70
2019-02-04T21:42:20.718Z,95523.06
2019-02-04T21:44:50.191Z,95521.89
2019-02-04T21:47:34.592Z,95522.00
2019-02-04T21:50:15.270Z,95520.64
2019-02-04T21:52:43.941Z,95519.35
2019-02-04T21:55:13.378Z,95525.60
2019-02-04T21:57:42.416Z,95529.76
2019-02-04T22:00:14.304Z,95536.00
2019-02-04T22:02:42.862Z,95528.72
2019-02-04T22:05:14.625Z,95529.83
2019-02-04T22:07:43.257Z,95528.21
2019-02-04T22:10:14.932Z,95524.12
2019-02-04T22:12:43.531Z,95525.04
2019-02-04T22:15:12.355Z,95531.02
2019-02-04T22:17:40.982Z,95533.16
2019-02-04T22:20:15.101Z,95533.59
2019-02-04T22:22:43.651Z,95545.71
2019-02-04T22:25:19.898Z,95539.31
2019-02-04T22:27:45.091Z,95544.16
2019-02-04T22:30:18.460Z,95550.20
2019-02-04T22:32:47.089Z,95548.50
2019-02-04T22:35:15.756Z,95541.78
2019-02-04T22:37:44.677Z,95542.15
2019-02-04T22:40:18.854Z,95551.24
2019-02-04T22:42:47.670Z,95554.22
2019-02-04T22:45:17.393Z,95551.68
2019-02-04T22:47:46.137Z,95556.03
2019-02-04T22:50:23.487Z,95538.11
2019-02-04T22:52:52.120Z,95546.88
2019-02-04T22:55:31.628Z,95540.33
2019-02-04T22:57:51.347Z,95543.86
2019-02-04T23:00:42.572Z,95546.84
2019-02-04T23:03:12.306Z,95545.54
2019-02-04T23:05:40.902Z,95551.75
2019-02-04T23:08:09.508Z,95553.83
2019-02-04T23:10:38.115Z,95555.96
2019-02-04T23:13:07.031Z,95548.66
2019-02-04T23:15:35.654Z,95546.70
2019-02-04T23:18:05.242Z,95541.03
2019-02-04T23:20:33.865Z,95544.34
2019-02-04T23:23:02.498Z,95534.50
2019-02-04T23:25:42.723Z,95538.11
2019-02-04T23:28:01.444Z,95543.05
2019-02-04T23:30:30.082Z,95541.51
2019-02-04T23:32:58.743Z,95540.27
2019-02-04T23:35:27.441Z,95526.97
2019-02-04T23:37:56.070Z,95521.55
2019-02-04T23:40:24.888Z,95517.14
2019-02-04T23:42:53.516Z,95513.91
2019-02-04T23:45:22.245Z,95513.66
2019-02-04T23:47:50.786Z,95518.27
2019-02-04T23:50:19.684Z,95517.63
2019-02-04T23:52:48.315Z,95515.33
2019-02-04T23:55:16.986Z,95523.38
2019-02-04T23:57:45.626Z,95518.92
